sensor_id;sensor_type;location;lat;lon;timestamp;P1;durP1;ratioP1;P2;durP2;ratioP2
10100;SDS011;5090;51.258;4.436;2023-04-25T00:01:47;11.80;;;4.53;;
10100;SDS011;5090;51.258;4.436;2023-04-25T00:04:15;18.90;;;4.53;;
10100;SDS011;5090;51.258;4.436;2023-04-25T00:06:43;11.13;;;4.93;;
10100;SDS011;5090;51.258;4.436;2023-04-25T00:09:12;14.83;;;4.73;;
10100;SDS011;5090;51.258;4.436;2023-04-25T00:11:40;13.00;;;4.77;;
10100;SDS011;5090;51.258;4.436;2023-04-25T00:14:09;19.67;;;4.70;;
10100;SDS011;5090;51.258;4.436;2023-04-25T00:16:37;11.70;;;4.47;;
10100;SDS011;5090;51.258;4.436;2023-04-25T00:19:06;16.33;;;4.77;;
10100;SDS011;5090;51.258;4.436;2023-04-25T00:21:34;15.20;;;5.13;;
10100;SDS011;5090;51.258;4.436;2023-04-25T00:24:02;22.10;;;4.40;;
10100;SDS011;5090;51.258;4.436;2023-04-25T00:26:31;15.40;;;4.93;;
10100;SDS011;5090;51.258;4.436;2023-04-25T00:28:59;22.67;;;5.00;;
10100;SDS011;5090;51.258;4.436;2023-04-25T00:31:31;17.03;;;4.90;;
10100;SDS011;5090;51.258;4.436;2023-04-25T00:33:59;18.27;;;4.73;;
10100;SDS011;5090;51.258;4.436;2023-04-25T00:36:28;19.37;;;4.70;;
10100;SDS011;5090;51.258;4.436;2023-04-25T00:38:56;13.60;;;4.50;;
10100;SDS011;5090;51.258;4.436;2023-04-25T00:41:25;16.23;;;5.17;;
10100;SDS011;5090;51.258;4.436;2023-04-25T00:43:53;14.70;;;5.33;;
10100;SDS011;5090;51.258;4.436;2023-04-25T00:46:21;17.20;;;4.77;;
10100;SDS011;5090;51.258;4.436;2023-04-25T00:48:49;12.17;;;5.03;;
10100;SDS011;5090;51.258;4.436;2023-04-25T00:51:19;16.87;;;5.50;;
10100;SDS011;5090;51.258;4.436;2023-04-25T00:53:45;21.53;;;4.93;;
10100;SDS011;5090;51.258;4.436;2023-04-25T00:56:14;24.50;;;5.40;;
10100;SDS011;5090;51.258;4.436;2023-04-25T00:58:43;12.73;;;4.50;;
10100;SDS011;5090;51.258;4.436;2023-04-25T01:01:11;13.23;;;4.93;;
10100;SDS011;5090;51.258;4.436;2023-04-25T01:03:40;18.27;;;4.53;;
10100;SDS011;5090;51.258;4.436;2023-04-25T01:06:09;16.97;;;4.90;;
10100;SDS011;5090;51.258;4.436;2023-04-25T01:08:37;13.87;;;5.10;;
10100;SDS011;5090;51.258;4.436;2023-04-25T01:11:05;16.83;;;5.27;;
10100;SDS011;5090;51.258;4.436;2023-04-25T01:13:34;17.67;;;4.67;;
10100;SDS011;5090;51.258;4.436;2023-04-25T01:16:02;12.20;;;4.40;;
10100;SDS011;5090;51.258;4.436;2023-04-25T01:18:30;20.80;;;4.93;;
10100;SDS011;5090;51.258;4.436;2023-04-25T01:21:09;10.20;;;4.50;;
10100;SDS011;5090;51.258;4.436;2023-04-25T01:23:38;15.93;;;5.27;;
10100;SDS011;5090;51.258;4.436;2023-04-25T01:26:06;16.50;;;5.07;;
10100;SDS011;5090;51.258;4.436;2023-04-25T01:28:34;15.53;;;5.03;;
10100;SDS011;5090;51.258;4.436;2023-04-25T01:31:02;19.07;;;5.07;;
10100;SDS011;5090;51.258;4.436;2023-04-25T01:33:31;18.63;;;5.07;;
10100;SDS011;5090;51.258;4.436;2023-04-25T01:35:59;10.07;;;4.47;;
10100;SDS011;5090;51.258;4.436;2023-04-25T01:38:27;15.03;;;5.30;;
10100;SDS011;5090;51.258;4.436;2023-04-25T01:40:55;9.90;;;4.37;;
10100;SDS011;5090;51.258;4.436;2023-04-25T01:43:24;15.17;;;5.63;;
10100;SDS011;5090;51.258;4.436;2023-04-25T01:45:52;15.53;;;4.83;;
10100;SDS011;5090;51.258;4.436;2023-04-25T01:48:20;15.43;;;4.97;;
10100;SDS011;5090;51.258;4.436;2023-04-25T01:50:48;15.33;;;4.67;;
10100;SDS011;5090;51.258;4.436;2023-04-25T01:53:16;16.13;;;5.70;;
10100;SDS011;5090;51.258;4.436;2023-04-25T01:55:45;19.17;;;5.13;;
10100;SDS011;5090;51.258;4.436;2023-04-25T01:58:13;15.17;;;5.33;;
10100;SDS011;5090;51.258;4.436;2023-04-25T02:00:41;15.33;;;5.00;;
10100;SDS011;5090;51.258;4.436;2023-04-25T02:03:10;14.87;;;5.13;;
10100;SDS011;5090;51.258;4.436;2023-04-25T02:05:39;18.53;;;6.47;;
10100;SDS011;5090;51.258;4.436;2023-04-25T02:08:12;14.00;;;5.17;;
10100;SDS011;5090;51.258;4.436;2023-04-25T02:10:40;22.73;;;5.30;;
10100;SDS011;5090;51.258;4.436;2023-04-25T02:13:08;22.63;;;6.27;;
10100;SDS011;5090;51.258;4.436;2023-04-25T02:15:36;12.70;;;5.20;;
10100;SDS011;5090;51.258;4.436;2023-04-25T02:18:05;16.53;;;4.83;;
10100;SDS011;5090;51.258;4.436;2023-04-25T02:20:33;16.03;;;4.50;;
10100;SDS011;5090;51.258;4.436;2023-04-25T02:23:01;17.13;;;4.80;;
10100;SDS011;5090;51.258;4.436;2023-04-25T02:25:29;14.83;;;5.37;;
10100;SDS011;5090;51.258;4.436;2023-04-25T02:27:57;19.97;;;5.87;;
10100;SDS011;5090;51.258;4.436;2023-04-25T02:30:27;18.87;;;4.97;;
10100;SDS011;5090;51.258;4.436;2023-04-25T02:32:55;20.77;;;5.60;;
10100;SDS011;5090;51.258;4.436;2023-04-25T02:35:23;17.10;;;5.23;;
10100;SDS011;5090;51.258;4.436;2023-04-25T02:37:51;15.10;;;5.10;;
10100;SDS011;5090;51.258;4.436;2023-04-25T02:40:19;15.83;;;5.80;;
10100;SDS011;5090;51.258;4.436;2023-04-25T02:42:48;17.10;;;5.70;;
10100;SDS011;5090;51.258;4.436;2023-04-25T02:45:16;17.93;;;5.37;;
10100;SDS011;5090;51.258;4.436;2023-04-25T02:47:44;17.00;;;4.73;;
10100;SDS011;5090;51.258;4.436;2023-04-25T02:50:12;11.83;;;4.80;;
10100;SDS011;5090;51.258;4.436;2023-04-25T02:52:41;14.27;;;5.30;;
10100;SDS011;5090;51.258;4.436;2023-04-25T02:55:09;18.83;;;5.57;;
10100;SDS011;5090;51.258;4.436;2023-04-25T02:57:38;18.50;;;5.93;;
10100;SDS011;5090;51.258;4.436;2023-04-25T03:00:06;17.23;;;5.17;;
10100;SDS011;5090;51.258;4.436;2023-04-25T03:02:35;20.77;;;5.50;;
10100;SDS011;5090;51.258;4.436;2023-04-25T03:05:03;17.80;;;5.70;;
10100;SDS011;5090;51.258;4.436;2023-04-25T03:07:31;12.17;;;5.30;;
10100;SDS011;5090;51.258;4.436;2023-04-25T03:10:00;15.53;;;4.97;;
10100;SDS011;5090;51.258;4.436;2023-04-25T03:12:28;13.03;;;5.27;;
10100;SDS011;5090;51.258;4.436;2023-04-25T03:14:57;20.07;;;5.60;;
10100;SDS011;5090;51.258;4.436;2023-04-25T03:17:25;20.73;;;5.43;;
10100;SDS011;5090;51.258;4.436;2023-04-25T03:19:54;17.90;;;5.50;;
10100;SDS011;5090;51.258;4.436;2023-04-25T03:22:23;20.00;;;5.20;;
10100;SDS011;5090;51.258;4.436;2023-04-25T03:24:51;17.10;;;5.07;;
10100;SDS011;5090;51.258;4.436;2023-04-25T03:27:19;14.17;;;4.77;;
10100;SDS011;5090;51.258;4.436;2023-04-25T03:29:47;16.00;;;4.87;;
10100;SDS011;5090;51.258;4.436;2023-04-25T03:32:15;16.27;;;5.00;;
10100;SDS011;5090;51.258;4.436;2023-04-25T03:34:43;13.17;;;5.47;;
10100;SDS011;5090;51.258;4.436;2023-04-25T03:37:12;14.27;;;5.47;;
10100;SDS011;5090;51.258;4.436;2023-04-25T03:39:40;16.73;;;4.73;;
10100;SDS011;5090;51.258;4.436;2023-04-25T03:42:08;24.33;;;5.43;;
10100;SDS011;5090;51.258;4.436;2023-04-25T03:44:36;14.77;;;5.13;;
10100;SDS011;5090;51.258;4.436;2023-04-25T03:47:05;17.90;;;5.20;;
10100;SDS011;5090;51.258;4.436;2023-04-25T03:49:33;20.47;;;5.37;;
10100;SDS011;5090;51.258;4.436;2023-04-25T03:52:01;16.67;;;5.30;;
10100;SDS011;5090;51.258;4.436;2023-04-25T03:54:29;18.13;;;5.17;;
10100;SDS011;5090;51.258;4.436;2023-04-25T03:56:58;20.73;;;5.93;;
10100;SDS011;5090;51.258;4.436;2023-04-25T03:59:26;19.33;;;4.53;;
10100;SDS011;5090;51.258;4.436;2023-04-25T04:01:54;6.33;;;4.00;;
10100;SDS011;5090;51.258;4.436;2023-04-25T04:04:22;12.83;;;4.83;;
10100;SDS011;5090;51.258;4.436;2023-04-25T04:06:52;6.30;;;3.93;;
10100;SDS011;5090;51.258;4.436;2023-04-25T04:09:20;10.30;;;3.97;;
10100;SDS011;5090;51.258;4.436;2023-04-25T04:11:48;11.77;;;4.27;;
10100;SDS011;5090;51.258;4.436;2023-04-25T04:14:16;8.53;;;3.40;;
10100;SDS011;5090;51.258;4.436;2023-04-25T04:16:45;14.53;;;4.53;;
10100;SDS011;5090;51.258;4.436;2023-04-25T04:19:13;13.13;;;3.73;;
10100;SDS011;5090;51.258;4.436;2023-04-25T04:21:42;17.17;;;4.10;;
10100;SDS011;5090;51.258;4.436;2023-04-25T04:24:10;8.70;;;4.27;;
10100;SDS011;5090;51.258;4.436;2023-04-25T04:26:38;9.67;;;4.37;;
10100;SDS011;5090;51.258;4.436;2023-04-25T04:29:06;13.13;;;4.20;;
10100;SDS011;5090;51.258;4.436;2023-04-25T04:31:35;10.03;;;3.80;;
10100;SDS011;5090;51.258;4.436;2023-04-25T04:34:03;10.33;;;3.83;;
10100;SDS011;5090;51.258;4.436;2023-04-25T04:36:31;9.57;;;3.80;;
10100;SDS011;5090;51.258;4.436;2023-04-25T04:39:00;14.67;;;4.40;;
10100;SDS011;5090;51.258;4.436;2023-04-25T04:41:28;11.33;;;3.90;;
10100;SDS011;5090;51.258;4.436;2023-04-25T04:43:57;11.90;;;4.50;;
10100;SDS011;5090;51.258;4.436;2023-04-25T04:46:25;13.87;;;5.00;;
10100;SDS011;5090;51.258;4.436;2023-04-25T04:48:53;9.17;;;3.90;;
10100;SDS011;5090;51.258;4.436;2023-04-25T04:51:21;14.73;;;4.47;;
10100;SDS011;5090;51.258;4.436;2023-04-25T04:53:50;9.27;;;4.00;;
10100;SDS011;5090;51.258;4.436;2023-04-25T04:56:19;11.60;;;3.93;;
10100;SDS011;5090;51.258;4.436;2023-04-25T04:58:47;12.13;;;4.47;;
10100;SDS011;5090;51.258;4.436;2023-04-25T05:01:16;13.43;;;4.13;;
10100;SDS011;5090;51.258;4.436;2023-04-25T05:03:44;11.60;;;3.93;;
10100;SDS011;5090;51.258;4.436;2023-04-25T05:06:13;9.33;;;4.00;;
10100;SDS011;5090;51.258;4.436;2023-04-25T05:08:42;10.03;;;3.90;;
10100;SDS011;5090;51.258;4.436;2023-04-25T05:11:10;12.50;;;3.97;;
10100;SDS011;5090;51.258;4.436;2023-04-25T05:13:38;11.63;;;3.97;;
10100;SDS011;5090;51.258;4.436;2023-04-25T05:16:06;10.30;;;4.10;;
10100;SDS011;5090;51.258;4.436;2023-04-25T05:18:35;11.43;;;4.10;;
10100;SDS011;5090;51.258;4.436;2023-04-25T05:21:03;11.73;;;4.27;;
10100;SDS011;5090;51.258;4.436;2023-04-25T05:23:32;13.70;;;4.67;;
10100;SDS011;5090;51.258;4.436;2023-04-25T05:26:05;13.07;;;3.90;;
10100;SDS011;5090;51.258;4.436;2023-04-25T05:28:33;11.30;;;4.10;;
10100;SDS011;5090;51.258;4.436;2023-04-25T05:31:02;12.03;;;4.43;;
10100;SDS011;5090;51.258;4.436;2023-04-25T05:33:30;13.00;;;4.40;;
10100;SDS011;5090;51.258;4.436;2023-04-25T05:35:59;13.47;;;4.27;;
10100;SDS011;5090;51.258;4.436;2023-04-25T05:38:27;14.13;;;4.17;;
10100;SDS011;5090;51.258;4.436;2023-04-25T05:40:56;12.80;;;3.87;;
10100;SDS011;5090;51.258;4.436;2023-04-25T05:43:24;14.00;;;4.13;;
10100;SDS011;5090;51.258;4.436;2023-04-25T05:45:52;16.80;;;4.13;;
10100;SDS011;5090;51.258;4.436;2023-04-25T05:48:21;12.00;;;3.60;;
10100;SDS011;5090;51.258;4.436;2023-04-25T05:50:49;9.57;;;3.93;;
10100;SDS011;5090;51.258;4.436;2023-04-25T05:53:18;6.83;;;3.30;;
10100;SDS011;5090;51.258;4.436;2023-04-25T05:55:46;10.63;;;3.50;;
10100;SDS011;5090;51.258;4.436;2023-04-25T05:58:14;8.13;;;3.20;;
10100;SDS011;5090;51.258;4.436;2023-04-25T06:00:42;9.47;;;3.20;;
10100;SDS011;5090;51.258;4.436;2023-04-25T06:03:11;12.10;;;3.57;;
10100;SDS011;5090;51.258;4.436;2023-04-25T06:05:41;9.13;;;3.37;;
10100;SDS011;5090;51.258;4.436;2023-04-25T06:08:09;10.00;;;3.70;;
10100;SDS011;5090;51.258;4.436;2023-04-25T06:10:38;12.17;;;3.23;;
10100;SDS011;5090;51.258;4.436;2023-04-25T06:13:06;11.37;;;3.07;;
10100;SDS011;5090;51.258;4.436;2023-04-25T06:15:35;7.27;;;3.13;;
10100;SDS011;5090;51.258;4.436;2023-04-25T06:18:03;12.93;;;3.10;;
10100;SDS011;5090;51.258;4.436;2023-04-25T06:20:32;6.83;;;2.83;;
10100;SDS011;5090;51.258;4.436;2023-04-25T06:23:00;8.37;;;3.23;;
10100;SDS011;5090;51.258;4.436;2023-04-25T06:25:29;7.93;;;2.80;;
10100;SDS011;5090;51.258;4.436;2023-04-25T06:27:57;7.93;;;2.60;;
10100;SDS011;5090;51.258;4.436;2023-04-25T06:30:25;10.47;;;2.53;;
10100;SDS011;5090;51.258;4.436;2023-04-25T06:32:54;12.80;;;2.57;;
10100;SDS011;5090;51.258;4.436;2023-04-25T06:35:22;8.37;;;2.60;;
10100;SDS011;5090;51.258;4.436;2023-04-25T06:37:50;11.10;;;2.40;;
10100;SDS011;5090;51.258;4.436;2023-04-25T06:40:18;10.20;;;2.50;;
10100;SDS011;5090;51.258;4.436;2023-04-25T06:42:47;9.93;;;2.80;;
10100;SDS011;5090;51.258;4.436;2023-04-25T06:45:16;7.40;;;2.87;;
10100;SDS011;5090;51.258;4.436;2023-04-25T06:47:44;9.00;;;2.50;;
10100;SDS011;5090;51.258;4.436;2023-04-25T06:50:12;7.60;;;3.10;;
10100;SDS011;5090;51.258;4.436;2023-04-25T06:52:40;6.77;;;2.03;;
10100;SDS011;5090;51.258;4.436;2023-04-25T06:55:09;8.70;;;2.70;;
10100;SDS011;5090;51.258;4.436;2023-04-25T06:57:37;7.50;;;2.53;;
10100;SDS011;5090;51.258;4.436;2023-04-25T07:00:08;6.20;;;2.20;;
10100;SDS011;5090;51.258;4.436;2023-04-25T07:02:36;6.80;;;2.03;;
10100;SDS011;5090;51.258;4.436;2023-04-25T07:05:06;5.20;;;2.10;;
10100;SDS011;5090;51.258;4.436;2023-04-25T07:07:35;6.70;;;2.63;;
10100;SDS011;5090;51.258;4.436;2023-04-25T07:10:03;5.47;;;2.10;;
10100;SDS011;5090;51.258;4.436;2023-04-25T07:12:31;10.60;;;2.47;;
10100;SDS011;5090;51.258;4.436;2023-04-25T07:15:00;10.87;;;2.23;;
10100;SDS011;5090;51.258;4.436;2023-04-25T07:17:28;7.30;;;2.47;;
10100;SDS011;5090;51.258;4.436;2023-04-25T07:19:57;6.27;;;2.43;;
10100;SDS011;5090;51.258;4.436;2023-04-25T07:22:25;8.13;;;2.83;;
10100;SDS011;5090;51.258;4.436;2023-04-25T07:24:53;8.93;;;2.53;;
10100;SDS011;5090;51.258;4.436;2023-04-25T07:27:22;7.47;;;3.23;;
10100;SDS011;5090;51.258;4.436;2023-04-25T07:29:51;6.90;;;2.60;;
10100;SDS011;5090;51.258;4.436;2023-04-25T07:32:19;8.47;;;2.37;;
10100;SDS011;5090;51.258;4.436;2023-04-25T07:34:47;11.00;;;2.40;;
10100;SDS011;5090;51.258;4.436;2023-04-25T07:37:16;11.90;;;2.40;;
10100;SDS011;5090;51.258;4.436;2023-04-25T07:39:44;9.23;;;2.23;;
10100;SDS011;5090;51.258;4.436;2023-04-25T07:42:15;8.97;;;2.20;;
10100;SDS011;5090;51.258;4.436;2023-04-25T07:44:43;7.27;;;2.03;;
10100;SDS011;5090;51.258;4.436;2023-04-25T07:47:11;8.00;;;2.07;;
10100;SDS011;5090;51.258;4.436;2023-04-25T07:49:40;9.10;;;1.90;;
10100;SDS011;5090;51.258;4.436;2023-04-25T07:52:08;8.37;;;1.53;;
10100;SDS011;5090;51.258;4.436;2023-04-25T07:54:36;4.83;;;1.50;;
10100;SDS011;5090;51.258;4.436;2023-04-25T07:57:04;4.77;;;1.33;;
10100;SDS011;5090;51.258;4.436;2023-04-25T07:59:33;5.33;;;1.53;;
10100;SDS011;5090;51.258;4.436;2023-04-25T08:02:01;3.10;;;1.13;;
10100;SDS011;5090;51.258;4.436;2023-04-25T08:04:30;3.30;;;1.60;;
10100;SDS011;5090;51.258;4.436;2023-04-25T08:06:58;3.70;;;1.20;;
10100;SDS011;5090;51.258;4.436;2023-04-25T08:09:26;4.73;;;1.83;;
10100;SDS011;5090;51.258;4.436;2023-04-25T08:11:54;6.93;;;1.80;;
10100;SDS011;5090;51.258;4.436;2023-04-25T08:14:22;5.53;;;2.23;;
10100;SDS011;5090;51.258;4.436;2023-04-25T08:16:51;3.47;;;1.90;;
10100;SDS011;5090;51.258;4.436;2023-04-25T08:19:20;3.97;;;2.07;;
10100;SDS011;5090;51.258;4.436;2023-04-25T08:21:48;3.50;;;1.63;;
10100;SDS011;5090;51.258;4.436;2023-04-25T08:24:16;6.40;;;1.80;;
10100;SDS011;5090;51.258;4.436;2023-04-25T08:26:45;4.73;;;1.67;;
10100;SDS011;5090;51.258;4.436;2023-04-25T08:29:13;6.00;;;1.63;;
10100;SDS011;5090;51.258;4.436;2023-04-25T08:31:41;3.23;;;1.53;;
10100;SDS011;5090;51.258;4.436;2023-04-25T08:34:09;4.30;;;1.60;;
10100;SDS011;5090;51.258;4.436;2023-04-25T08:36:38;5.70;;;1.83;;
10100;SDS011;5090;51.258;4.436;2023-04-25T08:39:06;6.83;;;1.80;;
10100;SDS011;5090;51.258;4.436;2023-04-25T08:41:36;5.30;;;1.80;;
10100;SDS011;5090;51.258;4.436;2023-04-25T08:44:03;8.60;;;1.83;;
10100;SDS011;5090;51.258;4.436;2023-04-25T08:46:31;3.10;;;1.40;;
10100;SDS011;5090;51.258;4.436;2023-04-25T08:49:00;6.83;;;1.97;;
10100;SDS011;5090;51.258;4.436;2023-04-25T08:51:30;3.93;;;1.50;;
10100;SDS011;5090;51.258;4.436;2023-04-25T08:53:57;4.57;;;1.50;;
10100;SDS011;5090;51.258;4.436;2023-04-25T08:56:25;6.03;;;1.47;;
10100;SDS011;5090;51.258;4.436;2023-04-25T08:58:53;6.13;;;1.47;;
10100;SDS011;5090;51.258;4.436;2023-04-25T09:01:22;7.30;;;1.60;;
10100;SDS011;5090;51.258;4.436;2023-04-25T09:03:50;8.37;;;1.57;;
10100;SDS011;5090;51.258;4.436;2023-04-25T09:06:18;4.33;;;1.77;;
10100;SDS011;5090;51.258;4.436;2023-04-25T09:08:46;4.53;;;1.63;;
10100;SDS011;5090;51.258;4.436;2023-04-25T09:11:14;8.60;;;1.40;;
10100;SDS011;5090;51.258;4.436;2023-04-25T09:13:43;5.33;;;0.90;;
10100;SDS011;5090;51.258;4.436;2023-04-25T09:16:11;2.77;;;1.20;;
10100;SDS011;5090;51.258;4.436;2023-04-25T09:18:39;2.90;;;0.80;;
10100;SDS011;5090;51.258;4.436;2023-04-25T09:21:08;2.20;;;0.90;;
10100;SDS011;5090;51.258;4.436;2023-04-25T09:23:38;3.23;;;1.00;;
10100;SDS011;5090;51.258;4.436;2023-04-25T09:26:06;4.50;;;1.27;;
10100;SDS011;5090;51.258;4.436;2023-04-25T09:28:34;2.03;;;1.00;;
10100;SDS011;5090;51.258;4.436;2023-04-25T09:31:03;5.87;;;1.33;;
10100;SDS011;5090;51.258;4.436;2023-04-25T09:33:32;2.07;;;1.00;;
10100;SDS011;5090;51.258;4.436;2023-04-25T09:36:07;2.97;;;1.03;;
10100;SDS011;5090;51.258;4.436;2023-04-25T09:38:40;4.57;;;1.10;;
10100;SDS011;5090;51.258;4.436;2023-04-25T09:41:08;3.70;;;1.37;;
10100;SDS011;5090;51.258;4.436;2023-04-25T09:43:36;2.20;;;1.07;;
10100;SDS011;5090;51.258;4.436;2023-04-25T09:46:08;5.87;;;1.50;;
10100;SDS011;5090;51.258;4.436;2023-04-25T09:48:36;2.90;;;1.37;;
10100;SDS011;5090;51.258;4.436;2023-04-25T09:51:20;3.87;;;1.00;;
10100;SDS011;5090;51.258;4.436;2023-04-25T09:53:48;6.23;;;0.97;;
10100;SDS011;5090;51.258;4.436;2023-04-25T09:56:16;4.40;;;1.33;;
10100;SDS011;5090;51.258;4.436;2023-04-25T09:58:45;5.33;;;1.30;;
10100;SDS011;5090;51.258;4.436;2023-04-25T10:01:14;4.27;;;1.00;;
10100;SDS011;5090;51.258;4.436;2023-04-25T10:03:42;7.37;;;1.27;;
10100;SDS011;5090;51.258;4.436;2023-04-25T10:06:14;3.60;;;1.20;;
10100;SDS011;5090;51.258;4.436;2023-04-25T10:08:41;5.57;;;1.20;;
10100;SDS011;5090;51.258;4.436;2023-04-25T10:11:10;5.53;;;1.37;;
10100;SDS011;5090;51.258;4.436;2023-04-25T10:13:38;2.87;;;0.90;;
10100;SDS011;5090;51.258;4.436;2023-04-25T10:16:07;5.53;;;1.33;;
10100;SDS011;5090;51.258;4.436;2023-04-25T10:18:35;3.63;;;1.10;;
10100;SDS011;5090;51.258;4.436;2023-04-25T10:21:04;5.70;;;1.23;;
10100;SDS011;5090;51.258;4.436;2023-04-25T10:23:32;2.70;;;1.00;;
10100;SDS011;5090;51.258;4.436;2023-04-25T10:26:01;3.20;;;1.00;;
10100;SDS011;5090;51.258;4.436;2023-04-25T10:28:29;1.83;;;1.03;;
10100;SDS011;5090;51.258;4.436;2023-04-25T10:31:02;3.60;;;1.40;;
10100;SDS011;5090;51.258;4.436;2023-04-25T10:33:36;2.93;;;1.40;;
10100;SDS011;5090;51.258;4.436;2023-04-25T10:36:10;5.47;;;1.97;;
10100;SDS011;5090;51.258;4.436;2023-04-25T10:38:39;3.27;;;1.10;;
10100;SDS011;5090;51.258;4.436;2023-04-25T10:41:08;3.33;;;1.10;;
10100;SDS011;5090;51.258;4.436;2023-04-25T10:43:38;4.60;;;1.30;;
10100;SDS011;5090;51.258;4.436;2023-04-25T10:46:25;6.43;;;1.20;;
10100;SDS011;5090;51.258;4.436;2023-04-25T10:48:57;5.07;;;1.00;;
10100;SDS011;5090;51.258;4.436;2023-04-25T10:51:25;2.57;;;1.23;;
10100;SDS011;5090;51.258;4.436;2023-04-25T10:54:02;3.83;;;1.40;;
10100;SDS011;5090;51.258;4.436;2023-04-25T10:56:32;4.50;;;1.10;;
10100;SDS011;5090;51.258;4.436;2023-04-25T10:59:06;4.17;;;1.67;;
10100;SDS011;5090;51.258;4.436;2023-04-25T11:01:36;3.43;;;1.30;;
10100;SDS011;5090;51.258;4.436;2023-04-25T11:04:03;4.53;;;1.00;;
10100;SDS011;5090;51.258;4.436;2023-04-25T11:06:37;2.47;;;0.93;;
10100;SDS011;5090;51.258;4.436;2023-04-25T11:09:03;2.67;;;1.23;;
10100;SDS011;5090;51.258;4.436;2023-04-25T11:11:32;6.37;;;1.13;;
10100;SDS011;5090;51.258;4.436;2023-04-25T11:14:01;3.70;;;1.00;;
10100;SDS011;5090;51.258;4.436;2023-04-25T11:16:29;2.63;;;0.90;;
10100;SDS011;5090;51.258;4.436;2023-04-25T11:18:57;2.07;;;0.73;;
10100;SDS011;5090;51.258;4.436;2023-04-25T11:21:26;1.67;;;0.87;;
10100;SDS011;5090;51.258;4.436;2023-04-25T11:23:56;2.83;;;0.87;;
10100;SDS011;5090;51.258;4.436;2023-04-25T11:26:24;2.27;;;0.80;;
10100;SDS011;5090;51.258;4.436;2023-04-25T11:28:52;3.37;;;1.20;;
10100;SDS011;5090;51.258;4.436;2023-04-25T11:31:24;2.83;;;0.77;;
10100;SDS011;5090;51.258;4.436;2023-04-25T11:33:53;2.60;;;1.27;;
10100;SDS011;5090;51.258;4.436;2023-04-25T11:36:22;2.13;;;0.80;;
10100;SDS011;5090;51.258;4.436;2023-04-25T11:38:50;2.53;;;1.10;;
10100;SDS011;5090;51.258;4.436;2023-04-25T11:41:18;4.40;;;1.20;;
10100;SDS011;5090;51.258;4.436;2023-04-25T11:43:46;1.73;;;1.13;;
10100;SDS011;5090;51.258;4.436;2023-04-25T11:46:19;6.27;;;0.90;;
10100;SDS011;5090;51.258;4.436;2023-04-25T11:48:48;2.23;;;1.23;;
10100;SDS011;5090;51.258;4.436;2023-04-25T11:51:16;4.83;;;1.33;;
10100;SDS011;5090;51.258;4.436;2023-04-25T11:53:45;2.60;;;0.80;;
10100;SDS011;5090;51.258;4.436;2023-04-25T11:56:17;3.80;;;1.00;;
10100;SDS011;5090;51.258;4.436;2023-04-25T12:01:26;5.27;;;1.17;;
10100;SDS011;5090;51.258;4.436;2023-04-25T12:03:53;9.63;;;1.20;;
10100;SDS011;5090;51.258;4.436;2023-04-25T12:06:25;3.43;;;1.10;;
10100;SDS011;5090;51.258;4.436;2023-04-25T12:11:24;6.90;;;1.67;;
10100;SDS011;5090;51.258;4.436;2023-04-25T12:19:35;4.10;;;1.17;;
10100;SDS011;5090;51.258;4.436;2023-04-25T12:27:45;2.10;;;0.80;;
10100;SDS011;5090;51.258;4.436;2023-04-25T12:30:20;4.97;;;1.10;;
10100;SDS011;5090;51.258;4.436;2023-04-25T12:32:55;2.73;;;0.90;;
10100;SDS011;5090;51.258;4.436;2023-04-25T12:35:24;3.00;;;1.10;;
10100;SDS011;5090;51.258;4.436;2023-04-25T12:40:43;4.30;;;0.90;;
10100;SDS011;5090;51.258;4.436;2023-04-25T12:43:11;2.20;;;0.70;;
10100;SDS011;5090;51.258;4.436;2023-04-25T12:45:44;2.60;;;0.80;;
10100;SDS011;5090;51.258;4.436;2023-04-25T12:48:13;3.03;;;1.07;;
10100;SDS011;5090;51.258;4.436;2023-04-25T12:50:42;5.20;;;0.98;;
10100;SDS011;5090;51.258;4.436;2023-04-25T12:53:10;4.30;;;1.20;;
10100;SDS011;5090;51.258;4.436;2023-04-25T12:55:39;6.00;;;1.40;;
10100;SDS011;5090;51.258;4.436;2023-04-25T12:58:07;3.20;;;0.97;;
10100;SDS011;5090;51.258;4.436;2023-04-25T13:00:35;4.33;;;1.10;;
10100;SDS011;5090;51.258;4.436;2023-04-25T13:03:04;6.70;;;2.30;;
10100;SDS011;5090;51.258;4.436;2023-04-25T13:05:32;4.00;;;1.23;;
10100;SDS011;5090;51.258;4.436;2023-04-25T13:08:00;2.70;;;1.20;;
10100;SDS011;5090;51.258;4.436;2023-04-25T13:10:29;5.73;;;1.10;;
10100;SDS011;5090;51.258;4.436;2023-04-25T13:12:57;4.00;;;1.03;;
10100;SDS011;5090;51.258;4.436;2023-04-25T13:15:27;6.80;;;1.07;;
10100;SDS011;5090;51.258;4.436;2023-04-25T13:17:56;6.13;;;1.30;;
10100;SDS011;5090;51.258;4.436;2023-04-25T13:20:24;3.40;;;0.93;;
10100;SDS011;5090;51.258;4.436;2023-04-25T13:22:52;4.93;;;1.23;;
10100;SDS011;5090;51.258;4.436;2023-04-25T13:25:21;2.60;;;0.70;;
10100;SDS011;5090;51.258;4.436;2023-04-25T13:27:49;1.27;;;0.80;;
10100;SDS011;5090;51.258;4.436;2023-04-25T13:30:17;3.33;;;0.90;;
10100;SDS011;5090;51.258;4.436;2023-04-25T13:32:46;3.27;;;0.77;;
10100;SDS011;5090;51.258;4.436;2023-04-25T13:35:14;4.50;;;1.00;;
10100;SDS011;5090;51.258;4.436;2023-04-25T13:37:42;3.77;;;0.83;;
10100;SDS011;5090;51.258;4.436;2023-04-25T13:40:11;5.90;;;1.00;;
10100;SDS011;5090;51.258;4.436;2023-04-25T13:42:39;5.27;;;1.37;;
10100;SDS011;5090;51.258;4.436;2023-04-25T13:45:08;4.43;;;1.30;;
10100;SDS011;5090;51.258;4.436;2023-04-25T13:47:36;3.67;;;0.97;;
10100;SDS011;5090;51.258;4.436;2023-04-25T13:50:05;7.00;;;0.90;;
10100;SDS011;5090;51.258;4.436;2023-04-25T13:52:33;10.03;;;1.67;;
10100;SDS011;5090;51.258;4.436;2023-04-25T13:55:01;4.17;;;1.03;;
10100;SDS011;5090;51.258;4.436;2023-04-25T13:57:30;2.80;;;1.10;;
10100;SDS011;5090;51.258;4.436;2023-04-25T13:59:59;2.90;;;1.20;;
10100;SDS011;5090;51.258;4.436;2023-04-25T14:02:27;3.47;;;1.27;;
10100;SDS011;5090;51.258;4.436;2023-04-25T14:04:55;3.60;;;1.23;;
10100;SDS011;5090;51.258;4.436;2023-04-25T14:07:24;5.03;;;1.40;;
10100;SDS011;5090;51.258;4.436;2023-04-25T14:09:52;6.67;;;1.37;;
10100;SDS011;5090;51.258;4.436;2023-04-25T14:12:20;7.17;;;1.27;;
10100;SDS011;5090;51.258;4.436;2023-04-25T14:14:49;4.37;;;1.37;;
10100;SDS011;5090;51.258;4.436;2023-04-25T14:17:17;8.23;;;1.43;;
10100;SDS011;5090;51.258;4.436;2023-04-25T14:19:45;4.20;;;1.23;;
10100;SDS011;5090;51.258;4.436;2023-04-25T14:22:14;4.13;;;0.93;;
10100;SDS011;5090;51.258;4.436;2023-04-25T14:24:58;3.00;;;0.97;;
10100;SDS011;5090;51.258;4.436;2023-04-25T14:27:26;2.83;;;0.97;;
10100;SDS011;5090;51.258;4.436;2023-04-25T14:29:55;4.57;;;1.60;;
10100;SDS011;5090;51.258;4.436;2023-04-25T14:32:23;3.57;;;0.90;;
10100;SDS011;5090;51.258;4.436;2023-04-25T14:34:51;4.00;;;1.33;;
10100;SDS011;5090;51.258;4.436;2023-04-25T14:37:21;2.30;;;0.90;;
10100;SDS011;5090;51.258;4.436;2023-04-25T14:39:49;2.43;;;1.00;;
10100;SDS011;5090;51.258;4.436;2023-04-25T14:42:18;4.47;;;0.90;;
10100;SDS011;5090;51.258;4.436;2023-04-25T14:44:46;3.57;;;1.00;;
10100;SDS011;5090;51.258;4.436;2023-04-25T14:47:14;3.93;;;0.90;;
10100;SDS011;5090;51.258;4.436;2023-04-25T14:49:42;6.13;;;1.63;;
10100;SDS011;5090;51.258;4.436;2023-04-25T14:52:12;5.40;;;1.73;;
10100;SDS011;5090;51.258;4.436;2023-04-25T14:54:40;2.07;;;1.00;;
10100;SDS011;5090;51.258;4.436;2023-04-25T14:57:09;5.20;;;0.97;;
10100;SDS011;5090;51.258;4.436;2023-04-25T14:59:38;1.93;;;1.03;;
10100;SDS011;5090;51.258;4.436;2023-04-25T15:02:06;5.17;;;1.27;;
10100;SDS011;5090;51.258;4.436;2023-04-25T15:04:34;3.63;;;1.07;;
10100;SDS011;5090;51.258;4.436;2023-04-25T15:07:03;2.60;;;1.10;;
10100;SDS011;5090;51.258;4.436;2023-04-25T15:09:31;5.43;;;1.00;;
10100;SDS011;5090;51.258;4.436;2023-04-25T15:12:00;10.03;;;1.23;;
10100;SDS011;5090;51.258;4.436;2023-04-25T15:14:28;5.33;;;1.20;;
10100;SDS011;5090;51.258;4.436;2023-04-25T15:16:58;4.73;;;1.30;;
10100;SDS011;5090;51.258;4.436;2023-04-25T15:19:26;2.33;;;1.27;;
10100;SDS011;5090;51.258;4.436;2023-04-25T15:21:54;8.17;;;1.40;;
10100;SDS011;5090;51.258;4.436;2023-04-25T15:24:23;7.77;;;1.00;;